createdAt,value
2018-10-18T00:00:47.550Z,61.90
2018-10-18T00:03:15.998Z,61.79
2018-10-18T00:05:44.304Z,61.97
2018-10-18T00:08:12.774Z,62.28
2018-10-18T00:10:41.410Z,62.14
2018-10-18T00:13:09.688Z,62.04
2018-10-18T00:15:38.115Z,62.12
2018-10-18T00:18:06.984Z,61.84
2018-10-18T00:20:35.394Z,62.03
2018-10-18T00:23:03.969Z,62.30
2018-10-18T00:25:32.355Z,62.47
2018-10-18T00:28:00.795Z,62.50
2018-10-18T00:30:29.131Z,62.73
2018-10-18T00:32:57.509Z,62.69
2018-10-18T00:35:25.801Z,62.55
2018-10-18T00:37:54.376Z,62.55
2018-10-18T00:40:22.705Z,62.74
2018-10-18T00:42:51.209Z,62.64
2018-10-18T00:45:19.545Z,62.37
2018-10-18T00:47:48.961Z,62.34
2018-10-18T00:50:17.406Z,62.04
2018-10-18T00:52:45.697Z,62.20
2018-10-18T00:55:14.113Z,61.84
2018-10-18T00:57:42.455Z,61.85
2018-10-18T01:00:11.836Z,61.34
2018-10-18T01:02:40.111Z,61.36
2018-10-18T01:05:08.583Z,61.40
2018-10-18T01:07:36.977Z,61.83
2018-10-18T01:10:05.289Z,62.42
2018-10-18T01:12:33.843Z,62.00
2018-10-18T01:15:02.089Z,62.17
2018-10-18T01:17:31.005Z,62.18
2018-10-18T01:19:59.345Z,62.68
2018-10-18T01:22:27.737Z,62.52
2018-10-18T01:24:56.092Z,62.46
2018-10-18T01:27:24.555Z,62.27
2018-10-18T01:29:53.032Z,62.37
2018-10-18T01:32:21.429Z,62.67
2018-10-18T01:34:49.801Z,62.77
2018-10-18T01:37:18.117Z,63.02
2018-10-18T01:39:46.875Z,63.48
2018-10-18T01:42:15.387Z,63.28
2018-10-18T01:44:43.840Z,63.70
2018-10-18T01:47:12.217Z,63.68
2018-10-18T01:49:40.520Z,63.15
2018-10-18T01:52:08.951Z,62.87
2018-10-18T01:54:37.244Z,62.63
2018-10-18T01:57:06.233Z,62.81
2018-10-18T01:59:34.821Z,62.38
2018-10-18T02:02:03.205Z,62.60
2018-10-18T02:04:31.547Z,62.46
2018-10-18T02:06:59.915Z,62.89
2018-10-18T02:09:28.221Z,63.08
2018-10-18T02:11:57.460Z,63.19
2018-10-18T02:14:25.825Z,63.27
2018-10-18T02:16:54.115Z,62.99
2018-10-18T02:19:22.663Z,62.97
2018-10-18T02:21:51.091Z,62.70
2018-10-18T02:24:19.504Z,62.68
2018-10-18T02:26:47.808Z,62.51
2018-10-18T02:29:16.503Z,62.47
2018-10-18T02:31:44.857Z,62.13
2018-10-18T02:34:13.320Z,62.47
2018-10-18T02:36:41.765Z,62.80
2018-10-18T02:39:10.547Z,63.08
2018-10-18T02:41:39.171Z,63.09
2018-10-18T02:44:07.665Z,62.88
2018-10-18T02:46:36.056Z,62.80
2018-10-18T02:49:04.642Z,62.67
2018-10-18T02:51:32.963Z,62.52
2018-10-18T02:54:01.360Z,62.46
2018-10-18T02:56:29.673Z,62.43
2018-10-18T02:58:58.084Z,62.27
2018-10-18T03:01:26.385Z,62.37
2018-10-18T03:03:54.710Z,62.23
2018-10-18T03:06:23.174Z,62.33
2018-10-18T03:08:51.662Z,62.11
2018-10-18T03:11:20.191Z,62.11
2018-10-18T03:13:48.646Z,61.88
2018-10-18T03:16:16.966Z,61.92
2018-10-18T03:18:45.234Z,61.71
2018-10-18T03:21:13.586Z,61.41
2018-10-18T03:23:41.882Z,61.81
2018-10-18T03:26:10.330Z,61.88
2018-10-18T03:28:38.670Z,61.72
2018-10-18T03:31:06.975Z,61.57
2018-10-18T03:33:35.355Z,61.58
2018-10-18T03:36:03.768Z,61.64
2018-10-18T03:38:32.158Z,61.71
2018-10-18T03:41:00.442Z,61.67
2018-10-18T03:43:28.932Z,61.83
2018-10-18T03:45:57.338Z,62.01
2018-10-18T03:48:25.721Z,62.35
2018-10-18T03:50:54.097Z,62.46
2018-10-18T03:53:22.444Z,62.26
2018-10-18T03:55:50.749Z,62.16
2018-10-18T03:58:19.097Z,62.07
2018-10-18T04:00:47.686Z,61.98
2018-10-18T04:03:16.096Z,61.83
2018-10-18T04:05:44.498Z,61.86
2018-10-18T04:08:12.778Z,61.92
2018-10-18T04:10:41.057Z,61.91
2018-10-18T04:13:09.484Z,62.24
2018-10-18T04:15:37.785Z,62.46
2018-10-18T04:18:06.336Z,63.24
2018-10-18T04:20:34.562Z,62.95
2018-10-18T04:23:02.946Z,63.07
2018-10-18T04:25:31.404Z,63.07
2018-10-18T04:27:59.807Z,62.94
2018-10-18T04:30:28.259Z,62.90
2018-10-18T04:32:56.617Z,63.08
2018-10-18T04:35:24.902Z,63.14
2018-10-18T04:37:53.188Z,63.04
2018-10-18T04:40:21.576Z,62.91
2018-10-18T04:42:49.887Z,62.38
2018-10-18T04:45:18.207Z,62.77
2018-10-18T04:47:46.589Z,62.63
2018-10-18T04:50:14.805Z,62.68
2018-10-18T04:52:43.088Z,62.63
2018-10-18T04:55:11.377Z,62.58
2018-10-18T04:57:39.778Z,62.84
2018-10-18T05:00:08.265Z,63.05
2018-10-18T05:02:36.721Z,62.95
2018-10-18T05:05:16.255Z,63.04
2018-10-18T05:07:44.590Z,62.83
2018-10-18T05:10:13.030Z,62.98
2018-10-18T05:12:41.463Z,62.80
2018-10-18T05:15:09.904Z,63.19
2018-10-18T05:17:38.369Z,63.20
2018-10-18T05:20:07.025Z,63.38
2018-10-18T05:22:35.351Z,63.30
2018-10-18T05:25:03.911Z,63.13
2018-10-18T05:27:32.094Z,63.01
2018-10-18T05:30:00.510Z,62.74
2018-10-18T05:32:28.958Z,62.38
2018-10-18T05:34:57.382Z,62.71
2018-10-18T05:37:25.745Z,62.89
2018-10-18T05:39:54.030Z,63.44
2018-10-18T05:42:22.442Z,63.60
2018-10-18T05:44:51.214Z,63.75
2018-10-18T05:47:19.740Z,63.65
2018-10-18T05:49:48.066Z,63.98
2018-10-18T05:52:16.422Z,64.18
2018-10-18T05:54:44.910Z,64.41
2018-10-18T05:57:13.268Z,64.26
2018-10-18T05:59:41.591Z,64.20
2018-10-18T06:02:10.182Z,64.45
2018-10-18T06:04:38.555Z,64.54
2018-10-18T06:07:06.979Z,64.79
2018-10-18T06:09:35.521Z,64.68
2018-10-18T06:12:04.139Z,64.40
2018-10-18T06:14:32.709Z,63.85
2018-10-18T06:17:01.039Z,63.79
2018-10-18T06:19:29.441Z,63.89
2018-10-18T06:21:57.763Z,63.65
2018-10-18T06:24:26.164Z,63.44
2018-10-18T06:26:55.065Z,63.29
2018-10-18T06:29:23.383Z,63.14
2018-10-18T06:31:51.726Z,63.11
2018-10-18T06:34:20.219Z,63.11
2018-10-18T06:36:48.600Z,63.02
2018-10-18T06:39:17.105Z,63.03
2018-10-18T06:41:45.454Z,63.61
2018-10-18T06:44:13.878Z,63.56
2018-10-18T06:46:42.528Z,63.63
2018-10-18T06:49:10.940Z,63.64
2018-10-18T06:51:39.266Z,63.64
2018-10-18T06:54:07.583Z,63.49
2018-10-18T06:56:35.990Z,63.45
2018-10-18T06:59:04.429Z,63.72
2018-10-18T07:01:32.770Z,63.84
2018-10-18T07:04:01.195Z,63.51
2018-10-18T07:06:29.526Z,63.88
2018-10-18T07:08:57.944Z,64.00
2018-10-18T07:11:26.307Z,64.09
2018-10-18T07:13:54.658Z,64.22
2018-10-18T07:16:23.044Z,64.36
2018-10-18T07:18:51.411Z,64.10
2018-10-18T07:21:19.734Z,64.24
2018-10-18T07:23:48.186Z,64.00
2018-10-18T07:26:16.566Z,63.96
2018-10-18T07:28:44.922Z,64.36
2018-10-18T07:31:13.318Z,64.62
2018-10-18T07:33:41.718Z,64.63
2018-10-18T07:36:10.088Z,64.65
2018-10-18T07:38:38.406Z,64.76
2018-10-18T07:41:06.865Z,64.78
2018-10-18T07:43:35.181Z,64.72
2018-10-18T07:46:03.803Z,64.66
2018-10-18T07:48:32.231Z,64.39
2018-10-18T07:51:00.645Z,64.70
2018-10-18T07:53:29.039Z,64.53
2018-10-18T07:55:57.401Z,64.81
2018-10-18T07:58:25.873Z,64.92
2018-10-18T08:00:54.308Z,64.76
2018-10-18T08:03:22.761Z,64.59
2018-10-18T08:05:51.120Z,64.10
2018-10-18T08:08:19.461Z,63.84
2018-10-18T08:10:47.968Z,64.07
2018-10-18T08:13:16.397Z,64.13
2018-10-18T08:15:44.694Z,63.45
2018-10-18T08:18:13.040Z,63.38
2018-10-18T08:20:41.367Z,63.63
2018-10-18T08:23:09.843Z,63.64
2018-10-18T08:25:38.271Z,63.56
2018-10-18T08:28:06.605Z,63.69
2018-10-18T08:30:34.926Z,63.60
2018-10-18T08:33:03.370Z,63.72
2018-10-18T08:35:31.793Z,63.54
2018-10-18T08:38:00.288Z,63.44
2018-10-18T08:40:28.480Z,63.33
2018-10-18T08:42:56.858Z,63.03
2018-10-18T08:45:25.188Z,62.94
2018-10-18T08:47:53.753Z,63.32
2018-10-18T08:50:22.177Z,62.62
2018-10-18T08:52:50.708Z,62.44
2018-10-18T08:55:19.155Z,62.41
2018-10-18T08:57:47.477Z,62.04
2018-10-18T09:00:15.949Z,61.88
2018-10-18T09:02:44.429Z,61.91
2018-10-18T09:05:12.830Z,61.81
2018-10-18T09:07:41.194Z,61.76
2018-10-18T09:10:09.842Z,61.29
2018-10-18T09:12:38.170Z,61.18
2018-10-18T09:15:07.910Z,61.56
2018-10-18T09:17:36.527Z,61.56
2018-10-18T09:20:05.577Z,61.39
2018-10-18T09:22:33.920Z,60.86
2018-10-18T09:25:02.388Z,60.87
2018-10-18T09:27:30.678Z,60.19
2018-10-18T09:29:58.992Z,60.53
2018-10-18T09:32:27.378Z,60.21
2018-10-18T09:34:55.825Z,60.17
2018-10-18T09:37:24.338Z,59.88
2018-10-18T09:39:52.720Z,59.40
2018-10-18T09:42:21.046Z,59.21
2018-10-18T09:44:49.464Z,59.45
2018-10-18T09:47:17.910Z,58.81
2018-10-18T09:49:46.290Z,58.57
2018-10-18T09:52:14.677Z,58.17
2018-10-18T09:54:43.090Z,58.19
2018-10-18T09:57:11.412Z,58.45
2018-10-18T09:59:39.854Z,58.15
2018-10-18T10:02:13.666Z,57.97
2018-10-18T10:04:42.064Z,57.75
2018-10-18T10:07:10.482Z,57.37
2018-10-18T10:09:39.826Z,57.51
2018-10-18T10:12:08.841Z,57.14
2018-10-18T10:14:37.246Z,57.07
2018-10-18T10:17:06.318Z,57.22
2018-10-18T10:19:34.709Z,56.82
2018-10-18T10:22:03.132Z,57.15
2018-10-18T10:24:31.734Z,56.68
2018-10-18T10:27:00.091Z,56.75
2018-10-18T10:29:28.547Z,56.48
2018-10-18T10:31:57.005Z,56.37
2018-10-18T10:34:25.486Z,56.37
2018-10-18T10:36:53.927Z,55.73
2018-10-18T10:39:22.304Z,56.48
2018-10-18T10:41:50.649Z,56.28
2018-10-18T10:44:19.124Z,56.04
2018-10-18T10:46:47.379Z,55.78
2018-10-18T10:49:15.786Z,55.89
2018-10-18T10:51:44.141Z,56.22
2018-10-18T10:54:12.573Z,55.74
2018-10-18T10:56:40.888Z,55.71
2018-10-18T10:59:15.304Z,55.65
2018-10-18T11:01:43.642Z,54.93
2018-10-18T11:04:12.254Z,54.62
2018-10-18T11:06:40.696Z,54.62
2018-10-18T11:09:10.713Z,54.79
2018-10-18T11:11:39.006Z,54.86
2018-10-18T11:14:07.562Z,54.91
2018-10-18T11:16:35.887Z,54.43
2018-10-18T11:19:04.387Z,54.84
2018-10-18T11:21:32.801Z,54.56
2018-10-18T11:24:01.165Z,54.52
2018-10-18T11:26:29.543Z,54.66
2018-10-18T11:28:57.954Z,54.00
2018-10-18T11:31:26.289Z,54.42
2018-10-18T11:33:54.674Z,54.31
2018-10-18T11:36:23.165Z,54.56
2018-10-18T11:38:51.615Z,54.41
2018-10-18T11:41:20.007Z,53.86
2018-10-18T11:43:48.427Z,53.84
2018-10-18T11:46:16.747Z,53.71
2018-10-18T11:48:45.169Z,53.27
2018-10-18T11:51:13.719Z,52.62
2018-10-18T11:53:42.159Z,52.21
2018-10-18T11:56:10.609Z,52.49
2018-10-18T11:58:38.885Z,52.35
2018-10-18T12:01:07.528Z,51.67
2018-10-18T12:03:35.968Z,51.50
2018-10-18T12:06:04.379Z,51.47
2018-10-18T12:08:32.708Z,51.35
2018-10-18T12:11:01.279Z,51.46
2018-10-18T12:13:29.845Z,51.28
2018-10-18T12:15:58.464Z,51.10
2018-10-18T12:18:29.456Z,50.74
2018-10-18T12:20:57.910Z,51.41
2018-10-18T12:23:26.345Z,51.27
2018-10-18T12:25:54.682Z,50.61
2018-10-18T12:28:23.198Z,50.10
2018-10-18T12:30:51.577Z,50.18
2018-10-18T12:33:20.188Z,50.44
2018-10-18T12:35:49.086Z,50.19
2018-10-18T12:38:17.824Z,50.21
2018-10-18T12:40:46.310Z,50.52
2018-10-18T12:43:14.755Z,50.57
2018-10-18T12:45:43.838Z,50.50
2018-10-18T12:48:12.330Z,50.02
2018-10-18T12:50:40.754Z,49.90
2018-10-18T12:53:09.311Z,50.40
2018-10-18T12:55:37.707Z,50.45
2018-10-18T12:58:06.486Z,50.51
2018-10-18T13:00:34.879Z,50.19
2018-10-18T13:03:03.289Z,49.87
2018-10-18T13:05:31.709Z,49.52
2018-10-18T13:08:00.188Z,49.44
2018-10-18T13:10:28.525Z,49.22
2018-10-18T13:12:58.038Z,48.93
2018-10-18T13:15:26.398Z,48.58
2018-10-18T13:17:54.784Z,48.60
2018-10-18T13:20:23.314Z,48.61
2018-10-18T13:22:51.649Z,48.40
2018-10-18T13:25:20.069Z,48.66
2018-10-18T13:27:48.455Z,48.13
2018-10-18T13:30:16.907Z,48.40
2018-10-18T13:32:45.230Z,48.22
2018-10-18T13:35:13.919Z,47.90
2018-10-18T13:37:42.248Z,48.44
2018-10-18T13:40:10.594Z,48.06
2018-10-18T13:42:38.934Z,48.22
2018-10-18T13:45:07.898Z,48.49
2018-10-18T13:47:36.492Z,48.64
2018-10-18T13:50:05.372Z,48.36
2018-10-18T13:52:33.803Z,47.95
2018-10-18T13:55:02.179Z,48.22
2018-10-18T13:57:30.617Z,48.70
2018-10-18T14:00:24.395Z,48.36
2018-10-18T14:02:53.623Z,48.64
2018-10-18T14:05:22.292Z,48.10
2018-10-18T14:07:51.947Z,48.19
2018-10-18T14:10:20.507Z,48.08
2018-10-18T14:12:54.436Z,48.23
2018-10-18T14:15:22.802Z,48.08
2018-10-18T14:17:51.220Z,47.40
2018-10-18T14:20:19.639Z,48.11
2018-10-18T14:22:47.960Z,47.76
2018-10-18T14:25:16.366Z,48.02
2018-10-18T14:27:44.802Z,47.97
2018-10-18T14:30:13.816Z,47.51
2018-10-18T14:32:42.172Z,47.47
2018-10-18T14:35:12.143Z,47.26
2018-10-18T14:37:40.953Z,47.70
2018-10-18T14:40:10.795Z,47.95
2018-10-18T14:42:39.272Z,47.80
2018-10-18T14:45:08.727Z,48.27
2018-10-18T14:47:37.002Z,48.44
2018-10-18T14:50:06.982Z,48.57
2018-10-18T14:52:35.704Z,48.36
2018-10-18T14:55:04.146Z,48.49
2018-10-18T14:57:32.498Z,48.54
2018-10-18T15:00:00.893Z,49.13
2018-10-18T15:02:29.515Z,48.81
2018-10-18T15:04:58.379Z,48.99
2018-10-18T15:07:26.859Z,49.38
2018-10-18T15:09:55.266Z,49.28
2018-10-18T15:12:23.682Z,49.95
2018-10-18T15:14:52.094Z,50.06
2018-10-18T15:17:20.469Z,50.09
2018-10-18T15:19:48.777Z,50.71
2018-10-18T15:22:17.620Z,50.60
2018-10-18T15:24:45.954Z,50.84
2018-10-18T15:27:14.377Z,51.19
2018-10-18T15:29:43.054Z,50.97
2018-10-18T15:32:11.829Z,51.51
2018-10-18T15:34:40.034Z,51.32
2018-10-18T15:37:08.536Z,51.47
2018-10-18T15:39:36.952Z,51.87
2018-10-18T15:42:05.976Z,52.05
2018-10-18T15:44:34.343Z,52.65
2018-10-18T15:47:02.799Z,52.62
2018-10-18T15:49:31.099Z,52.95
2018-10-18T15:51:59.660Z,53.02
2018-10-18T15:54:28.431Z,52.79
2018-10-18T15:56:56.750Z,53.35
2018-10-18T15:59:25.441Z,53.24
2018-10-18T16:01:53.829Z,53.12
2018-10-18T16:04:22.185Z,53.46
2018-10-18T16:06:50.607Z,53.36
2018-10-18T16:09:19.009Z,53.75
2018-10-18T16:11:47.469Z,53.56
2018-10-18T16:14:15.862Z,53.57
2018-10-18T16:16:44.165Z,53.86
2018-10-18T16:19:12.570Z,54.35
2018-10-18T16:21:41.025Z,54.50
2018-10-18T16:24:09.460Z,55.34
2018-10-18T16:26:37.884Z,55.49
2018-10-18T16:29:06.543Z,55.73
2018-10-18T16:31:34.977Z,56.34
2018-10-18T16:34:03.525Z,56.67
2018-10-18T16:36:31.979Z,57.10
2018-10-18T16:39:00.444Z,57.26
2018-10-18T16:41:28.982Z,57.45
2018-10-18T16:43:57.304Z,57.82
2018-10-18T16:46:25.628Z,57.68
2018-10-18T16:48:53.966Z,58.14
2018-10-18T16:51:22.338Z,58.38
2018-10-18T16:53:50.704Z,58.09
2018-10-18T16:56:19.126Z,58.74
2018-10-18T16:58:47.456Z,58.71
2018-10-18T17:01:15.828Z,58.58
2018-10-18T17:03:44.302Z,58.84
2018-10-18T17:06:12.836Z,58.93
2018-10-18T17:08:41.251Z,58.98
2018-10-18T17:11:09.762Z,59.24
2018-10-18T17:13:38.238Z,59.02
2018-10-18T17:16:07.091Z,59.22
2018-10-18T17:18:35.415Z,59.58
2018-10-18T17:21:03.951Z,59.28
2018-10-18T17:23:32.393Z,59.08
2018-10-18T17:26:00.744Z,59.08
2018-10-18T17:28:29.115Z,59.16
2018-10-18T17:30:57.554Z,58.94
2018-10-18T17:33:25.971Z,58.75
2018-10-18T17:35:54.384Z,58.62
2018-10-18T17:38:22.794Z,58.52
2018-10-18T17:40:51.396Z,58.53
2018-10-18T17:43:19.718Z,58.50
2018-10-18T17:45:48.197Z,58.49
2018-10-18T17:48:16.902Z,58.61
2018-10-18T17:50:45.300Z,58.70
2018-10-18T17:53:13.677Z,58.85
2018-10-18T17:55:42.019Z,58.66
2018-10-18T17:58:10.587Z,58.61
2018-10-18T18:00:38.956Z,58.43
2018-10-18T18:03:07.336Z,58.08
2018-10-18T18:05:35.750Z,58.41
2018-10-18T18:08:04.176Z,58.36
2018-10-18T18:10:32.574Z,58.42
2018-10-18T18:13:00.973Z,58.78
2018-10-18T18:15:29.332Z,59.45
2018-10-18T18:17:57.711Z,59.85
2018-10-18T18:20:26.097Z,59.65
2018-10-18T18:22:54.529Z,59.33
2018-10-18T18:25:22.849Z,59.50
2018-10-18T18:27:51.237Z,59.72
2018-10-18T18:30:19.669Z,60.29
2018-10-18T18:32:48.175Z,60.59
2018-10-18T18:35:16.539Z,60.40
2018-10-18T18:37:44.954Z,60.18
2018-10-18T18:40:13.293Z,60.63
2018-10-18T18:42:41.816Z,60.88
2018-10-18T18:45:15.577Z,61.56
2018-10-18T18:47:43.919Z,61.74
2018-10-18T18:50:12.499Z,62.19
2018-10-18T18:52:40.869Z,62.76
2018-10-18T18:55:10.142Z,62.55
2018-10-18T18:57:39.774Z,62.68
2018-10-18T19:00:09.654Z,62.69
2018-10-18T19:02:38.390Z,62.25
2018-10-18T19:05:07.699Z,62.04
2018-10-18T19:07:36.272Z,61.86
2018-10-18T19:10:05.110Z,62.02
2018-10-18T19:12:33.494Z,62.03
2018-10-18T19:15:01.929Z,62.19
2018-10-18T19:17:30.262Z,62.38
2018-10-18T19:19:58.750Z,62.83
2018-10-18T19:22:27.255Z,63.08
2018-10-18T19:24:55.807Z,63.36
2018-10-18T19:27:24.134Z,63.67
2018-10-18T19:29:52.651Z,63.66
2018-10-18T19:32:21.082Z,63.90
2018-10-18T19:34:49.422Z,63.28
2018-10-18T19:37:17.759Z,63.63
2018-10-18T19:39:46.451Z,63.66
2018-10-18T19:42:15.008Z,63.74
2018-10-18T19:44:43.441Z,63.51
2018-10-18T19:47:13.001Z,63.31
2018-10-18T19:49:41.714Z,63.41
2018-10-18T19:52:10.311Z,64.02
2018-10-18T19:54:39.946Z,63.95
2018-10-18T19:57:08.272Z,64.58
2018-10-18T19:59:36.862Z,65.04
2018-10-18T20:02:05.710Z,65.02
2018-10-18T20:04:34.015Z,65.18
2018-10-18T20:07:02.422Z,64.67
2018-10-18T20:09:30.757Z,64.37
2018-10-18T20:11:59.318Z,64.20
2018-10-18T20:14:28.075Z,64.25
2018-10-18T20:16:56.495Z,64.11
2018-10-18T20:19:25.115Z,63.57
2018-10-18T20:21:53.502Z,64.11
2018-10-18T20:24:22.091Z,64.04
2018-10-18T20:26:50.448Z,64.39
2018-10-18T20:29:18.761Z,64.58
2018-10-18T20:31:47.254Z,64.22
2018-10-18T20:34:15.571Z,64.02
2018-10-18T20:36:43.994Z,64.18
2018-10-18T20:39:12.733Z,63.62
2018-10-18T20:41:41.140Z,63.63
2018-10-18T20:44:09.617Z,63.62
2018-10-18T20:46:38.408Z,63.14
2018-10-18T20:49:06.719Z,63.31
2018-10-18T20:51:35.070Z,63.53
2018-10-18T20:54:03.709Z,63.51
2018-10-18T20:56:32.128Z,63.59
2018-10-18T20:59:00.541Z,63.79
2018-10-18T21:01:29.026Z,63.92
2018-10-18T21:03:58.372Z,63.74
2018-10-18T21:06:26.708Z,64.10
2018-10-18T21:08:55.122Z,64.33
2018-10-18T21:11:23.433Z,64.52
2018-10-18T21:13:51.807Z,64.46
2018-10-18T21:16:20.329Z,64.25
2018-10-18T21:18:48.678Z,64.30
2018-10-18T21:21:17.007Z,64.22
2018-10-18T21:23:45.736Z,64.02
2018-10-18T21:26:14.031Z,63.39
2018-10-18T21:28:42.385Z,63.43
2018-10-18T21:31:10.963Z,63.48
2018-10-18T21:33:39.427Z,63.49
2018-10-18T21:36:07.719Z,63.37
2018-10-18T21:38:36.115Z,63.06
2018-10-18T21:41:04.540Z,62.84
2018-10-18T21:43:32.854Z,63.14
2018-10-18T21:46:01.245Z,63.53
2018-10-18T21:48:30.207Z,63.57
2018-10-18T21:50:59.238Z,63.86
2018-10-18T21:53:27.801Z,63.51
2018-10-18T21:55:56.182Z,63.44
2018-10-18T21:58:24.757Z,63.20
2018-10-18T22:00:53.478Z,63.29
2018-10-18T22:03:21.835Z,63.04
2018-10-18T22:05:50.207Z,63.75
2018-10-18T22:08:18.619Z,64.06
2018-10-18T22:10:46.938Z,63.96
2018-10-18T22:13:15.219Z,63.55
2018-10-18T22:15:43.708Z,63.07
2018-10-18T22:18:12.017Z,63.50
2018-10-18T22:20:40.313Z,63.57
2018-10-18T22:23:08.781Z,64.18
2018-10-18T22:25:37.127Z,64.23
2018-10-18T22:28:05.948Z,64.18
2018-10-18T22:30:34.336Z,64.13
2018-10-18T22:33:02.717Z,64.63
2018-10-18T22:35:31.169Z,65.00
2018-10-18T22:37:59.600Z,65.32
2018-10-18T22:40:27.917Z,65.72
2018-10-18T22:42:56.315Z,65.11
2018-10-18T22:45:24.787Z,65.57
2018-10-18T22:47:53.166Z,65.80
2018-10-18T22:50:21.556Z,66.20
2018-10-18T22:52:49.997Z,66.70
2018-10-18T22:55:18.381Z,66.75
2018-10-18T22:57:46.690Z,66.76
2018-10-18T23:00:15.264Z,67.09
2018-10-18T23:02:43.629Z,66.72
2018-10-18T23:05:12.197Z,66.35
2018-10-18T23:07:40.472Z,65.81
2018-10-18T23:10:08.937Z,65.41
2018-10-18T23:12:37.265Z,65.38
2018-10-18T23:15:07.836Z,65.63
2018-10-18T23:17:36.249Z,65.82
2018-10-18T23:20:05.041Z,66.13
2018-10-18T23:22:33.461Z,66.32
2018-10-18T23:25:01.760Z,66.65
2018-10-18T23:27:32.875Z,66.79
2018-10-18T23:30:01.239Z,67.03
2018-10-18T23:32:30.629Z,66.96
2018-10-18T23:34:59.359Z,67.14
2018-10-18T23:37:27.905Z,67.28
2018-10-18T23:39:56.267Z,66.98
2018-10-18T23:42:24.638Z,66.65
2018-10-18T23:44:53.098Z,66.16
2018-10-18T23:47:21.372Z,65.57
2018-10-18T23:49:49.677Z,65.00
2018-10-18T23:52:18.115Z,64.94
2018-10-18T23:54:46.535Z,64.90
2018-10-18T23:57:14.919Z,64.95
2018-10-18T23:59:43.381Z,64.90
